sensor_id;sensor_type;location;lat;lon;timestamp;P1;durP1;ratioP1;P2;durP2;ratioP2
3085;SDS011;52812;48.960;9.108;2024-01-30T00:01:15;23.00;;;14.43;;
3085;SDS011;52812;48.960;9.108;2024-01-30T00:03:40;26.03;;;14.30;;
3085;SDS011;52812;48.960;9.108;2024-01-30T00:06:07;23.03;;;15.20;;
3085;SDS011;52812;48.960;9.108;2024-01-30T00:08:33;24.43;;;15.23;;
3085;SDS011;52812;48.960;9.108;2024-01-30T00:10:58;21.13;;;14.10;;
3085;SDS011;52812;48.960;9.108;2024-01-30T00:13:24;23.73;;;13.80;;
3085;SDS011;52812;48.960;9.108;2024-01-30T00:15:50;25.10;;;14.37;;
3085;SDS011;52812;48.960;9.108;2024-01-30T00:18:15;22.77;;;13.80;;
3085;SDS011;52812;48.960;9.108;2024-01-30T00:20:41;24.00;;;14.90;;
3085;SDS011;52812;48.960;9.108;2024-01-30T00:23:08;19.97;;;13.90;;
3085;SDS011;52812;48.960;9.108;2024-01-30T00:25:33;22.87;;;14.53;;
3085;SDS011;52812;48.960;9.108;2024-01-30T00:27:59;23.30;;;14.30;;
3085;SDS011;52812;48.960;9.108;2024-01-30T00:30:25;25.13;;;15.20;;
3085;SDS011;52812;48.960;9.108;2024-01-30T00:32:50;25.70;;;15.23;;
3085;SDS011;52812;48.960;9.108;2024-01-30T00:35:16;20.60;;;14.27;;
3085;SDS011;52812;48.960;9.108;2024-01-30T00:37:42;22.37;;;13.83;;
3085;SDS011;52812;48.960;9.108;2024-01-30T00:40:08;24.60;;;14.60;;
3085;SDS011;52812;48.960;9.108;2024-01-30T00:42:40;22.73;;;15.20;;
3085;SDS011;52812;48.960;9.108;2024-01-30T00:45:15;20.07;;;13.57;;
3085;SDS011;52812;48.960;9.108;2024-01-30T00:47:41;21.40;;;14.10;;
3085;SDS011;52812;48.960;9.108;2024-01-30T00:50:07;21.03;;;13.00;;
3085;SDS011;52812;48.960;9.108;2024-01-30T00:52:33;25.00;;;15.13;;
3085;SDS011;52812;48.960;9.108;2024-01-30T00:54:59;20.77;;;13.17;;
3085;SDS011;52812;48.960;9.108;2024-01-30T00:57:25;22.03;;;13.57;;
3085;SDS011;52812;48.960;9.108;2024-01-30T00:59:51;19.40;;;12.97;;
3085;SDS011;52812;48.960;9.108;2024-01-30T01:02:17;24.07;;;13.97;;
3085;SDS011;52812;48.960;9.108;2024-01-30T01:04:43;21.20;;;14.57;;
3085;SDS011;52812;48.960;9.108;2024-01-30T01:07:10;22.20;;;13.33;;
3085;SDS011;52812;48.960;9.108;2024-01-30T01:09:36;23.40;;;13.53;;
3085;SDS011;52812;48.960;9.108;2024-01-30T01:12:02;23.67;;;13.43;;
3085;SDS011;52812;48.960;9.108;2024-01-30T01:14:28;24.00;;;14.27;;
3085;SDS011;52812;48.960;9.108;2024-01-30T01:16:53;22.97;;;14.47;;
3085;SDS011;52812;48.960;9.108;2024-01-30T01:19:19;23.03;;;14.80;;
3085;SDS011;52812;48.960;9.108;2024-01-30T01:21:44;22.53;;;14.50;;
3085;SDS011;52812;48.960;9.108;2024-01-30T01:24:10;21.23;;;14.17;;
3085;SDS011;52812;48.960;9.108;2024-01-30T01:26:36;22.43;;;13.60;;
3085;SDS011;52812;48.960;9.108;2024-01-30T01:29:01;23.70;;;14.30;;
3085;SDS011;52812;48.960;9.108;2024-01-30T01:31:29;26.10;;;14.67;;
3085;SDS011;52812;48.960;9.108;2024-01-30T01:33:55;21.27;;;13.80;;
3085;SDS011;52812;48.960;9.108;2024-01-30T01:36:21;19.80;;;13.77;;
3085;SDS011;52812;48.960;9.108;2024-01-30T01:38:46;20.30;;;13.53;;
3085;SDS011;52812;48.960;9.108;2024-01-30T01:41:12;21.10;;;13.63;;
3085;SDS011;52812;48.960;9.108;2024-01-30T01:43:37;20.70;;;13.77;;
3085;SDS011;52812;48.960;9.108;2024-01-30T01:46:04;20.60;;;14.10;;
3085;SDS011;52812;48.960;9.108;2024-01-30T01:48:31;26.67;;;16.30;;
3085;SDS011;52812;48.960;9.108;2024-01-30T01:50:58;23.40;;;14.20;;
3085;SDS011;52812;48.960;9.108;2024-01-30T01:53:24;24.50;;;15.30;;
3085;SDS011;52812;48.960;9.108;2024-01-30T01:55:50;25.87;;;14.60;;
3085;SDS011;52812;48.960;9.108;2024-01-30T01:58:18;23.13;;;14.40;;
3085;SDS011;52812;48.960;9.108;2024-01-30T02:00:45;22.13;;;13.97;;
3085;SDS011;52812;48.960;9.108;2024-01-30T02:03:11;22.87;;;14.30;;
3085;SDS011;52812;48.960;9.108;2024-01-30T02:05:39;24.57;;;14.70;;
3085;SDS011;52812;48.960;9.108;2024-01-30T02:08:07;21.90;;;13.33;;
3085;SDS011;52812;48.960;9.108;2024-01-30T02:10:34;20.67;;;13.50;;
3085;SDS011;52812;48.960;9.108;2024-01-30T02:12:59;22.20;;;14.60;;
3085;SDS011;52812;48.960;9.108;2024-01-30T02:15:25;20.87;;;13.20;;
3085;SDS011;52812;48.960;9.108;2024-01-30T02:17:50;22.47;;;13.93;;
3085;SDS011;52812;48.960;9.108;2024-01-30T02:20:16;25.63;;;13.93;;
3085;SDS011;52812;48.960;9.108;2024-01-30T02:22:42;24.20;;;14.03;;
3085;SDS011;52812;48.960;9.108;2024-01-30T02:25:08;20.67;;;13.97;;
3085;SDS011;52812;48.960;9.108;2024-01-30T02:27:34;23.20;;;14.30;;
3085;SDS011;52812;48.960;9.108;2024-01-30T02:30:00;24.20;;;14.63;;
3085;SDS011;52812;48.960;9.108;2024-01-30T02:32:25;25.87;;;14.53;;
3085;SDS011;52812;48.960;9.108;2024-01-30T02:34:51;21.50;;;14.00;;
3085;SDS011;52812;48.960;9.108;2024-01-30T02:37:17;20.50;;;13.80;;
3085;SDS011;52812;48.960;9.108;2024-01-30T02:39:42;21.80;;;13.90;;
3085;SDS011;52812;48.960;9.108;2024-01-30T02:42:08;19.43;;;14.40;;
3085;SDS011;52812;48.960;9.108;2024-01-30T02:44:33;24.33;;;15.00;;
3085;SDS011;52812;48.960;9.108;2024-01-30T02:46:59;21.37;;;14.97;;
3085;SDS011;52812;48.960;9.108;2024-01-30T02:49:25;24.47;;;14.20;;
3085;SDS011;52812;48.960;9.108;2024-01-30T02:51:51;22.90;;;14.30;;
3085;SDS011;52812;48.960;9.108;2024-01-30T02:54:18;23.67;;;14.70;;
3085;SDS011;52812;48.960;9.108;2024-01-30T02:56:44;19.60;;;13.93;;
3085;SDS011;52812;48.960;9.108;2024-01-30T02:59:09;20.83;;;14.00;;
3085;SDS011;52812;48.960;9.108;2024-01-30T03:01:42;21.03;;;13.83;;
3085;SDS011;52812;48.960;9.108;2024-01-30T03:04:11;22.20;;;13.40;;
3085;SDS011;52812;48.960;9.108;2024-01-30T03:06:37;24.57;;;15.07;;
3085;SDS011;52812;48.960;9.108;2024-01-30T03:09:03;19.90;;;13.73;;
3085;SDS011;52812;48.960;9.108;2024-01-30T03:11:29;21.10;;;13.93;;
3085;SDS011;52812;48.960;9.108;2024-01-30T03:13:55;22.77;;;14.90;;
3085;SDS011;52812;48.960;9.108;2024-01-30T03:16:21;25.90;;;14.17;;
3085;SDS011;52812;48.960;9.108;2024-01-30T03:18:47;23.50;;;13.87;;
3085;SDS011;52812;48.960;9.108;2024-01-30T03:21:13;23.07;;;14.00;;
3085;SDS011;52812;48.960;9.108;2024-01-30T03:23:39;26.43;;;15.00;;
3085;SDS011;52812;48.960;9.108;2024-01-30T03:26:05;23.90;;;15.40;;
3085;SDS011;52812;48.960;9.108;2024-01-30T03:28:31;19.50;;;13.83;;
3085;SDS011;52812;48.960;9.108;2024-01-30T03:30:57;22.23;;;14.47;;
3085;SDS011;52812;48.960;9.108;2024-01-30T03:33:23;22.37;;;15.40;;
3085;SDS011;52812;48.960;9.108;2024-01-30T03:35:48;22.03;;;15.10;;
3085;SDS011;52812;48.960;9.108;2024-01-30T03:38:14;25.00;;;14.90;;
3085;SDS011;52812;48.960;9.108;2024-01-30T03:40:39;21.07;;;14.40;;
3085;SDS011;52812;48.960;9.108;2024-01-30T03:43:05;23.53;;;14.97;;
3085;SDS011;52812;48.960;9.108;2024-01-30T03:45:31;22.60;;;13.97;;
3085;SDS011;52812;48.960;9.108;2024-01-30T03:47:56;26.40;;;14.97;;
3085;SDS011;52812;48.960;9.108;2024-01-30T03:50:22;21.70;;;13.97;;
3085;SDS011;52812;48.960;9.108;2024-01-30T03:52:47;24.27;;;13.70;;
3085;SDS011;52812;48.960;9.108;2024-01-30T03:55:13;27.23;;;15.80;;
3085;SDS011;52812;48.960;9.108;2024-01-30T03:57:39;29.80;;;17.60;;
3085;SDS011;52812;48.960;9.108;2024-01-30T04:00:05;33.90;;;17.70;;
3085;SDS011;52812;48.960;9.108;2024-01-30T04:02:31;24.80;;;15.37;;
3085;SDS011;52812;48.960;9.108;2024-01-30T04:04:56;25.40;;;15.83;;
3085;SDS011;52812;48.960;9.108;2024-01-30T04:07:22;27.90;;;17.00;;
3085;SDS011;52812;48.960;9.108;2024-01-30T04:09:47;27.20;;;15.67;;
3085;SDS011;52812;48.960;9.108;2024-01-30T04:12:13;24.77;;;14.70;;
3085;SDS011;52812;48.960;9.108;2024-01-30T04:14:39;26.00;;;15.27;;
3085;SDS011;52812;48.960;9.108;2024-01-30T04:17:04;26.77;;;14.87;;
3085;SDS011;52812;48.960;9.108;2024-01-30T04:19:30;25.83;;;15.40;;
3085;SDS011;52812;48.960;9.108;2024-01-30T04:21:56;22.17;;;13.90;;
3085;SDS011;52812;48.960;9.108;2024-01-30T04:24:21;18.67;;;12.53;;
3085;SDS011;52812;48.960;9.108;2024-01-30T04:26:47;20.13;;;12.80;;
3085;SDS011;52812;48.960;9.108;2024-01-30T04:29:12;23.30;;;13.63;;
3085;SDS011;52812;48.960;9.108;2024-01-30T04:31:38;22.37;;;13.20;;
3085;SDS011;52812;48.960;9.108;2024-01-30T04:34:04;19.03;;;13.10;;
3085;SDS011;52812;48.960;9.108;2024-01-30T04:36:29;18.80;;;12.73;;
3085;SDS011;52812;48.960;9.108;2024-01-30T04:38:55;23.10;;;13.97;;
3085;SDS011;52812;48.960;9.108;2024-01-30T04:41:20;22.33;;;13.90;;
3085;SDS011;52812;48.960;9.108;2024-01-30T04:43:46;25.17;;;14.47;;
3085;SDS011;52812;48.960;9.108;2024-01-30T04:46:12;23.63;;;14.20;;
3085;SDS011;52812;48.960;9.108;2024-01-30T04:48:40;29.67;;;14.97;;
3085;SDS011;52812;48.960;9.108;2024-01-30T04:51:06;22.57;;;14.93;;
3085;SDS011;52812;48.960;9.108;2024-01-30T04:53:31;24.00;;;15.53;;
3085;SDS011;52812;48.960;9.108;2024-01-30T04:55:57;22.90;;;13.47;;
3085;SDS011;52812;48.960;9.108;2024-01-30T04:58:23;19.80;;;12.77;;
3085;SDS011;52812;48.960;9.108;2024-01-30T05:00:48;18.60;;;12.90;;
3085;SDS011;52812;48.960;9.108;2024-01-30T05:03:16;18.10;;;12.70;;
3085;SDS011;52812;48.960;9.108;2024-01-30T05:05:44;21.10;;;12.50;;
3085;SDS011;52812;48.960;9.108;2024-01-30T05:08:09;17.83;;;12.03;;
3085;SDS011;52812;48.960;9.108;2024-01-30T05:10:35;18.37;;;13.20;;
3085;SDS011;52812;48.960;9.108;2024-01-30T05:13:00;21.30;;;13.50;;
3085;SDS011;52812;48.960;9.108;2024-01-30T05:15:26;20.97;;;13.80;;
3085;SDS011;52812;48.960;9.108;2024-01-30T05:17:51;21.00;;;14.37;;
3085;SDS011;52812;48.960;9.108;2024-01-30T05:20:17;22.30;;;14.57;;
3085;SDS011;52812;48.960;9.108;2024-01-30T05:22:43;25.23;;;13.50;;
3085;SDS011;52812;48.960;9.108;2024-01-30T05:25:10;22.97;;;14.67;;
3085;SDS011;52812;48.960;9.108;2024-01-30T05:27:36;19.77;;;13.57;;
3085;SDS011;52812;48.960;9.108;2024-01-30T05:30:02;21.53;;;13.50;;
3085;SDS011;52812;48.960;9.108;2024-01-30T05:32:28;21.30;;;14.20;;
3085;SDS011;52812;48.960;9.108;2024-01-30T05:34:54;21.53;;;13.30;;
3085;SDS011;52812;48.960;9.108;2024-01-30T05:37:19;19.07;;;14.10;;
3085;SDS011;52812;48.960;9.108;2024-01-30T05:39:45;21.00;;;13.90;;
3085;SDS011;52812;48.960;9.108;2024-01-30T05:42:11;22.03;;;14.27;;
3085;SDS011;52812;48.960;9.108;2024-01-30T05:44:36;24.90;;;14.93;;
3085;SDS011;52812;48.960;9.108;2024-01-30T05:47:02;21.30;;;14.60;;
3085;SDS011;52812;48.960;9.108;2024-01-30T05:49:28;22.53;;;13.50;;
3085;SDS011;52812;48.960;9.108;2024-01-30T05:51:54;21.30;;;13.70;;
3085;SDS011;52812;48.960;9.108;2024-01-30T05:54:19;21.77;;;13.80;;
3085;SDS011;52812;48.960;9.108;2024-01-30T05:56:45;23.20;;;13.37;;
3085;SDS011;52812;48.960;9.108;2024-01-30T05:59:10;20.93;;;13.67;;
3085;SDS011;52812;48.960;9.108;2024-01-30T06:01:36;20.30;;;14.00;;
3085;SDS011;52812;48.960;9.108;2024-01-30T06:04:02;19.20;;;13.53;;
3085;SDS011;52812;48.960;9.108;2024-01-30T06:06:27;21.93;;;13.50;;
3085;SDS011;52812;48.960;9.108;2024-01-30T06:08:53;17.90;;;11.90;;
3085;SDS011;52812;48.960;9.108;2024-01-30T06:11:21;20.17;;;12.53;;
3085;SDS011;52812;48.960;9.108;2024-01-30T06:13:46;20.13;;;13.20;;
3085;SDS011;52812;48.960;9.108;2024-01-30T06:16:12;21.17;;;12.70;;
3085;SDS011;52812;48.960;9.108;2024-01-30T06:18:38;18.27;;;12.50;;
3085;SDS011;52812;48.960;9.108;2024-01-30T06:21:04;18.80;;;11.97;;
3085;SDS011;52812;48.960;9.108;2024-01-30T06:23:30;16.20;;;10.90;;
3085;SDS011;52812;48.960;9.108;2024-01-30T06:25:55;18.10;;;11.87;;
3085;SDS011;52812;48.960;9.108;2024-01-30T06:28:21;18.17;;;13.30;;
3085;SDS011;52812;48.960;9.108;2024-01-30T06:30:47;16.80;;;12.60;;
3085;SDS011;52812;48.960;9.108;2024-01-30T06:33:13;16.77;;;11.90;;
3085;SDS011;52812;48.960;9.108;2024-01-30T06:35:40;20.30;;;13.20;;
3085;SDS011;52812;48.960;9.108;2024-01-30T06:38:06;17.70;;;12.10;;
3085;SDS011;52812;48.960;9.108;2024-01-30T06:40:31;17.43;;;11.37;;
3085;SDS011;52812;48.960;9.108;2024-01-30T06:42:57;19.30;;;12.20;;
3085;SDS011;52812;48.960;9.108;2024-01-30T06:45:22;18.20;;;11.17;;
3085;SDS011;52812;48.960;9.108;2024-01-30T06:47:48;18.00;;;10.67;;
3085;SDS011;52812;48.960;9.108;2024-01-30T06:50:14;16.37;;;10.70;;
3085;SDS011;52812;48.960;9.108;2024-01-30T06:52:39;15.27;;;10.73;;
3085;SDS011;52812;48.960;9.108;2024-01-30T06:55:05;23.27;;;11.53;;
3085;SDS011;52812;48.960;9.108;2024-01-30T06:57:31;17.30;;;11.27;;
3085;SDS011;52812;48.960;9.108;2024-01-30T06:59:57;26.67;;;12.67;;
3085;SDS011;52812;48.960;9.108;2024-01-30T07:02:23;17.33;;;12.80;;
3085;SDS011;52812;48.960;9.108;2024-01-30T07:04:48;19.23;;;13.00;;
3085;SDS011;52812;48.960;9.108;2024-01-30T07:07:14;23.10;;;13.80;;
3085;SDS011;52812;48.960;9.108;2024-01-30T07:09:40;19.27;;;13.20;;
3085;SDS011;52812;48.960;9.108;2024-01-30T07:12:06;21.17;;;13.27;;
3085;SDS011;52812;48.960;9.108;2024-01-30T07:14:32;18.73;;;13.27;;
3085;SDS011;52812;48.960;9.108;2024-01-30T07:16:58;20.73;;;12.83;;
3085;SDS011;52812;48.960;9.108;2024-01-30T07:19:24;19.47;;;12.73;;
3085;SDS011;52812;48.960;9.108;2024-01-30T07:21:52;20.00;;;12.50;;
3085;SDS011;52812;48.960;9.108;2024-01-30T07:24:18;21.20;;;12.63;;
3085;SDS011;52812;48.960;9.108;2024-01-30T07:26:44;20.20;;;13.00;;
3085;SDS011;52812;48.960;9.108;2024-01-30T07:29:09;21.67;;;13.17;;
3085;SDS011;52812;48.960;9.108;2024-01-30T07:31:35;21.40;;;12.97;;
3085;SDS011;52812;48.960;9.108;2024-01-30T07:34:01;19.50;;;12.40;;
3085;SDS011;52812;48.960;9.108;2024-01-30T07:36:27;18.17;;;13.47;;
3085;SDS011;52812;48.960;9.108;2024-01-30T07:38:53;17.33;;;11.87;;
3085;SDS011;52812;48.960;9.108;2024-01-30T07:41:19;17.43;;;10.83;;
3085;SDS011;52812;48.960;9.108;2024-01-30T07:43:45;18.83;;;11.47;;
3085;SDS011;52812;48.960;9.108;2024-01-30T07:46:11;19.70;;;12.17;;
3085;SDS011;52812;48.960;9.108;2024-01-30T07:48:36;19.87;;;11.90;;
3085;SDS011;52812;48.960;9.108;2024-01-30T07:51:02;20.83;;;12.90;;
3085;SDS011;52812;48.960;9.108;2024-01-30T07:53:29;16.73;;;12.20;;
3085;SDS011;52812;48.960;9.108;2024-01-30T07:55:54;16.67;;;11.40;;
3085;SDS011;52812;48.960;9.108;2024-01-30T07:58:20;16.73;;;11.30;;
3085;SDS011;52812;48.960;9.108;2024-01-30T08:00:45;17.90;;;11.87;;
3085;SDS011;52812;48.960;9.108;2024-01-30T08:03:11;17.10;;;11.10;;
3085;SDS011;52812;48.960;9.108;2024-01-30T08:05:37;16.40;;;11.37;;
3085;SDS011;52812;48.960;9.108;2024-01-30T08:08:04;19.30;;;11.40;;
3085;SDS011;52812;48.960;9.108;2024-01-30T08:10:30;22.00;;;13.07;;
3085;SDS011;52812;48.960;9.108;2024-01-30T08:12:55;20.90;;;13.33;;
3085;SDS011;52812;48.960;9.108;2024-01-30T08:15:21;21.17;;;14.23;;
3085;SDS011;52812;48.960;9.108;2024-01-30T08:17:47;25.67;;;15.03;;
3085;SDS011;52812;48.960;9.108;2024-01-30T08:20:12;20.63;;;14.10;;
3085;SDS011;52812;48.960;9.108;2024-01-30T08:22:39;19.47;;;13.27;;
3085;SDS011;52812;48.960;9.108;2024-01-30T08:25:05;22.20;;;13.23;;
3085;SDS011;52812;48.960;9.108;2024-01-30T08:27:32;19.77;;;12.33;;
3085;SDS011;52812;48.960;9.108;2024-01-30T08:29:57;22.30;;;13.93;;
3085;SDS011;52812;48.960;9.108;2024-01-30T08:32:23;23.20;;;13.87;;
3085;SDS011;52812;48.960;9.108;2024-01-30T08:34:49;15.73;;;11.57;;
3085;SDS011;52812;48.960;9.108;2024-01-30T08:37:15;16.73;;;11.73;;
3085;SDS011;52812;48.960;9.108;2024-01-30T08:39:42;14.87;;;10.93;;
3085;SDS011;52812;48.960;9.108;2024-01-30T08:42:08;19.03;;;11.47;;
3085;SDS011;52812;48.960;9.108;2024-01-30T08:44:34;16.63;;;11.67;;
3085;SDS011;52812;48.960;9.108;2024-01-30T08:46:59;19.53;;;12.67;;
3085;SDS011;52812;48.960;9.108;2024-01-30T08:49:25;19.27;;;13.70;;
3085;SDS011;52812;48.960;9.108;2024-01-30T08:51:51;17.10;;;11.73;;
3085;SDS011;52812;48.960;9.108;2024-01-30T08:54:19;17.40;;;11.30;;
3085;SDS011;52812;48.960;9.108;2024-01-30T08:56:45;17.40;;;11.93;;
3085;SDS011;52812;48.960;9.108;2024-01-30T08:59:11;16.40;;;10.50;;
3085;SDS011;52812;48.960;9.108;2024-01-30T09:01:36;18.10;;;12.00;;
3085;SDS011;52812;48.960;9.108;2024-01-30T09:04:02;19.30;;;11.40;;
3085;SDS011;52812;48.960;9.108;2024-01-30T09:06:28;18.43;;;11.27;;
3085;SDS011;52812;48.960;9.108;2024-01-30T09:08:54;16.77;;;11.80;;
3085;SDS011;52812;48.960;9.108;2024-01-30T09:11:19;17.97;;;12.57;;
3085;SDS011;52812;48.960;9.108;2024-01-30T09:13:45;18.30;;;12.47;;
3085;SDS011;52812;48.960;9.108;2024-01-30T09:16:11;20.43;;;12.67;;
3085;SDS011;52812;48.960;9.108;2024-01-30T09:18:36;21.00;;;15.23;;
3085;SDS011;52812;48.960;9.108;2024-01-30T09:21:02;22.17;;;14.43;;
3085;SDS011;52812;48.960;9.108;2024-01-30T09:23:28;23.83;;;15.07;;
3085;SDS011;52812;48.960;9.108;2024-01-30T09:25:54;20.30;;;13.90;;
3085;SDS011;52812;48.960;9.108;2024-01-30T09:28:20;22.27;;;14.40;;
3085;SDS011;52812;48.960;9.108;2024-01-30T09:30:45;22.47;;;14.47;;
3085;SDS011;52812;48.960;9.108;2024-01-30T09:33:11;24.77;;;15.07;;
3085;SDS011;52812;48.960;9.108;2024-01-30T09:35:36;21.87;;;13.73;;
3085;SDS011;52812;48.960;9.108;2024-01-30T09:38:02;24.13;;;14.27;;
3085;SDS011;52812;48.960;9.108;2024-01-30T09:40:28;21.20;;;13.60;;
3085;SDS011;52812;48.960;9.108;2024-01-30T09:42:54;24.10;;;14.33;;
3085;SDS011;52812;48.960;9.108;2024-01-30T09:45:21;21.80;;;14.70;;
3085;SDS011;52812;48.960;9.108;2024-01-30T09:47:49;25.10;;;15.03;;
3085;SDS011;52812;48.960;9.108;2024-01-30T09:50:15;21.20;;;13.97;;
3085;SDS011;52812;48.960;9.108;2024-01-30T09:52:45;20.83;;;14.80;;
3085;SDS011;52812;48.960;9.108;2024-01-30T09:55:14;17.57;;;13.60;;
3085;SDS011;52812;48.960;9.108;2024-01-30T09:57:41;18.30;;;13.60;;
3085;SDS011;52812;48.960;9.108;2024-01-30T10:00:07;21.87;;;14.73;;
3085;SDS011;52812;48.960;9.108;2024-01-30T10:02:34;20.80;;;13.80;;
3085;SDS011;52812;48.960;9.108;2024-01-30T10:05:01;18.30;;;13.47;;
3085;SDS011;52812;48.960;9.108;2024-01-30T10:07:27;19.37;;;13.50;;
3085;SDS011;52812;48.960;9.108;2024-01-30T10:09:53;21.90;;;14.00;;
3085;SDS011;52812;48.960;9.108;2024-01-30T10:12:19;21.33;;;14.80;;
3085;SDS011;52812;48.960;9.108;2024-01-30T10:14:44;28.70;;;16.00;;
3085;SDS011;52812;48.960;9.108;2024-01-30T10:17:11;25.90;;;15.00;;
3085;SDS011;52812;48.960;9.108;2024-01-30T10:19:40;22.77;;;15.60;;
3085;SDS011;52812;48.960;9.108;2024-01-30T10:22:07;24.93;;;15.27;;
3085;SDS011;52812;48.960;9.108;2024-01-30T10:24:33;19.70;;;14.03;;
3085;SDS011;52812;48.960;9.108;2024-01-30T10:26:59;21.43;;;15.30;;
3085;SDS011;52812;48.960;9.108;2024-01-30T10:29:24;21.40;;;14.47;;
3085;SDS011;52812;48.960;9.108;2024-01-30T10:32:03;22.33;;;14.57;;
3085;SDS011;52812;48.960;9.108;2024-01-30T10:34:30;25.87;;;14.97;;
3085;SDS011;52812;48.960;9.108;2024-01-30T10:39:32;19.47;;;13.87;;
3085;SDS011;52812;48.960;9.108;2024-01-30T10:42:03;20.40;;;14.30;;
3085;SDS011;52812;48.960;9.108;2024-01-30T10:44:34;21.27;;;14.13;;
3085;SDS011;52812;48.960;9.108;2024-01-30T10:47:11;21.53;;;14.50;;
3085;SDS011;52812;48.960;9.108;2024-01-30T10:49:39;21.53;;;13.63;;
3085;SDS011;52812;48.960;9.108;2024-01-30T10:52:08;24.67;;;14.60;;
3085;SDS011;52812;48.960;9.108;2024-01-30T10:54:35;21.73;;;13.93;;
3085;SDS011;52812;48.960;9.108;2024-01-30T10:57:02;19.67;;;14.23;;
3085;SDS011;52812;48.960;9.108;2024-01-30T10:59:29;18.93;;;13.57;;
3085;SDS011;52812;48.960;9.108;2024-01-30T11:01:57;20.87;;;14.00;;
3085;SDS011;52812;48.960;9.108;2024-01-30T11:04:24;21.20;;;14.27;;
3085;SDS011;52812;48.960;9.108;2024-01-30T11:06:50;20.00;;;12.60;;
3085;SDS011;52812;48.960;9.108;2024-01-30T11:09:17;18.60;;;13.40;;
3085;SDS011;52812;48.960;9.108;2024-01-30T11:11:50;20.80;;;14.20;;
3085;SDS011;52812;48.960;9.108;2024-01-30T11:14:26;22.87;;;13.30;;
3085;SDS011;52812;48.960;9.108;2024-01-30T11:16:56;20.33;;;12.97;;
3085;SDS011;52812;48.960;9.108;2024-01-30T11:19:24;18.63;;;12.70;;
3085;SDS011;52812;48.960;9.108;2024-01-30T11:21:53;19.90;;;13.97;;
3085;SDS011;52812;48.960;9.108;2024-01-30T11:24:20;18.60;;;13.67;;
3085;SDS011;52812;48.960;9.108;2024-01-30T11:26:48;23.60;;;14.80;;
3085;SDS011;52812;48.960;9.108;2024-01-30T11:29:15;23.20;;;15.47;;
3085;SDS011;52812;48.960;9.108;2024-01-30T11:31:55;26.73;;;15.80;;
3085;SDS011;52812;48.960;9.108;2024-01-30T11:34:22;18.80;;;14.37;;
3085;SDS011;52812;48.960;9.108;2024-01-30T11:36:51;21.70;;;15.47;;
3085;SDS011;52812;48.960;9.108;2024-01-30T11:39:36;20.60;;;15.60;;
3085;SDS011;52812;48.960;9.108;2024-01-30T11:42:02;19.90;;;15.47;;
3085;SDS011;52812;48.960;9.108;2024-01-30T11:44:30;20.97;;;15.20;;
3085;SDS011;52812;48.960;9.108;2024-01-30T11:46:56;21.27;;;15.30;;
3085;SDS011;52812;48.960;9.108;2024-01-30T11:49:21;19.93;;;15.77;;
3085;SDS011;52812;48.960;9.108;2024-01-30T11:51:48;22.03;;;14.50;;
3085;SDS011;52812;48.960;9.108;2024-01-30T11:54:15;21.57;;;14.60;;
3085;SDS011;52812;48.960;9.108;2024-01-30T11:56:41;21.73;;;15.00;;
3085;SDS011;52812;48.960;9.108;2024-01-30T11:59:08;24.07;;;15.10;;
3085;SDS011;52812;48.960;9.108;2024-01-30T12:01:33;22.67;;;15.30;;
3085;SDS011;52812;48.960;9.108;2024-01-30T12:03:59;20.97;;;14.57;;
3085;SDS011;52812;48.960;9.108;2024-01-30T12:06:25;18.77;;;13.90;;
3085;SDS011;52812;48.960;9.108;2024-01-30T12:08:58;18.60;;;13.83;;
3085;SDS011;52812;48.960;9.108;2024-01-30T12:11:25;18.83;;;14.40;;
3085;SDS011;52812;48.960;9.108;2024-01-30T12:13:51;21.30;;;14.60;;
3085;SDS011;52812;48.960;9.108;2024-01-30T12:16:18;23.07;;;15.43;;
3085;SDS011;52812;48.960;9.108;2024-01-30T12:18:44;20.83;;;15.47;;
3085;SDS011;52812;48.960;9.108;2024-01-30T12:21:10;24.23;;;16.20;;
3085;SDS011;52812;48.960;9.108;2024-01-30T12:23:35;19.90;;;15.30;;
3085;SDS011;52812;48.960;9.108;2024-01-30T12:26:01;24.03;;;15.90;;
3085;SDS011;52812;48.960;9.108;2024-01-30T12:28:32;22.07;;;14.10;;
3085;SDS011;52812;48.960;9.108;2024-01-30T12:31:04;25.10;;;17.47;;
3085;SDS011;52812;48.960;9.108;2024-01-30T12:33:30;20.63;;;15.60;;
3085;SDS011;52812;48.960;9.108;2024-01-30T12:35:57;26.13;;;18.10;;
3085;SDS011;52812;48.960;9.108;2024-01-30T12:38:26;24.33;;;17.10;;
3085;SDS011;52812;48.960;9.108;2024-01-30T12:40:55;26.00;;;18.13;;
3085;SDS011;52812;48.960;9.108;2024-01-30T12:43:21;24.60;;;16.97;;
3085;SDS011;52812;48.960;9.108;2024-01-30T12:45:48;23.83;;;17.10;;
3085;SDS011;52812;48.960;9.108;2024-01-30T12:48:15;21.63;;;16.70;;
3085;SDS011;52812;48.960;9.108;2024-01-30T12:50:41;24.73;;;16.60;;
3085;SDS011;52812;48.960;9.108;2024-01-30T12:53:06;27.30;;;16.60;;
3085;SDS011;52812;48.960;9.108;2024-01-30T12:55:34;23.70;;;16.30;;
3085;SDS011;52812;48.960;9.108;2024-01-30T12:57:59;23.80;;;16.57;;
3085;SDS011;52812;48.960;9.108;2024-01-30T13:00:25;27.90;;;16.20;;
3085;SDS011;52812;48.960;9.108;2024-01-30T13:02:51;26.43;;;16.30;;
3085;SDS011;52812;48.960;9.108;2024-01-30T13:05:16;22.00;;;15.03;;
3085;SDS011;52812;48.960;9.108;2024-01-30T13:07:42;25.00;;;14.80;;
3085;SDS011;52812;48.960;9.108;2024-01-30T13:10:08;21.90;;;15.40;;
3085;SDS011;52812;48.960;9.108;2024-01-30T13:12:34;22.13;;;14.93;;
3085;SDS011;52812;48.960;9.108;2024-01-30T13:15:00;21.70;;;14.50;;
3085;SDS011;52812;48.960;9.108;2024-01-30T13:17:27;20.47;;;14.37;;
3085;SDS011;52812;48.960;9.108;2024-01-30T13:19:52;19.33;;;14.30;;
3085;SDS011;52812;48.960;9.108;2024-01-30T13:22:19;23.37;;;14.50;;
3085;SDS011;52812;48.960;9.108;2024-01-30T13:24:47;20.50;;;13.73;;
3085;SDS011;52812;48.960;9.108;2024-01-30T13:27:13;19.67;;;13.33;;
3085;SDS011;52812;48.960;9.108;2024-01-30T13:29:39;18.43;;;13.43;;
3085;SDS011;52812;48.960;9.108;2024-01-30T13:32:05;20.93;;;13.90;;
3085;SDS011;52812;48.960;9.108;2024-01-30T13:34:31;17.27;;;13.23;;
3085;SDS011;52812;48.960;9.108;2024-01-30T13:36:56;18.40;;;14.00;;
3085;SDS011;52812;48.960;9.108;2024-01-30T13:39:22;19.23;;;13.83;;
3085;SDS011;52812;48.960;9.108;2024-01-30T13:41:48;20.10;;;14.20;;
3085;SDS011;52812;48.960;9.108;2024-01-30T13:44:15;22.67;;;14.47;;
3085;SDS011;52812;48.960;9.108;2024-01-30T13:46:42;22.10;;;14.50;;
3085;SDS011;52812;48.960;9.108;2024-01-30T13:49:08;24.50;;;15.23;;
3085;SDS011;52812;48.960;9.108;2024-01-30T13:51:33;24.30;;;15.00;;
3085;SDS011;52812;48.960;9.108;2024-01-30T13:53:59;20.20;;;13.03;;
3085;SDS011;52812;48.960;9.108;2024-01-30T13:56:25;19.47;;;14.43;;
3085;SDS011;52812;48.960;9.108;2024-01-30T13:58:51;20.53;;;14.30;;
3085;SDS011;52812;48.960;9.108;2024-01-30T14:01:17;20.10;;;14.10;;
3085;SDS011;52812;48.960;9.108;2024-01-30T14:03:43;19.87;;;14.30;;
3085;SDS011;52812;48.960;9.108;2024-01-30T14:06:09;18.13;;;14.03;;
3085;SDS011;52812;48.960;9.108;2024-01-30T14:08:35;20.70;;;14.57;;
3085;SDS011;52812;48.960;9.108;2024-01-30T14:11:00;19.97;;;13.80;;
3085;SDS011;52812;48.960;9.108;2024-01-30T14:13:26;17.27;;;13.27;;
3085;SDS011;52812;48.960;9.108;2024-01-30T14:15:52;21.67;;;14.67;;
3085;SDS011;52812;48.960;9.108;2024-01-30T14:18:18;21.73;;;15.93;;
3085;SDS011;52812;48.960;9.108;2024-01-30T14:20:43;25.47;;;16.40;;
3085;SDS011;52812;48.960;9.108;2024-01-30T14:23:09;23.93;;;14.33;;
3085;SDS011;52812;48.960;9.108;2024-01-30T14:25:35;23.60;;;13.83;;
3085;SDS011;52812;48.960;9.108;2024-01-30T14:28:01;22.30;;;14.07;;
3085;SDS011;52812;48.960;9.108;2024-01-30T14:30:26;21.63;;;14.50;;